sensor_id;sensor_type;location;lat;lon;timestamp;P1;durP1;ratioP1;P2;durP2;ratioP2
75340;SDS011;64931;47.562;18.920;2023-02-12T00:01:10;21.90;;;15.30;;
75340;SDS011;64931;47.562;18.920;2023-02-12T00:03:36;24.40;;;19.80;;
75340;SDS011;64931;47.562;18.920;2023-02-12T00:06:02;25.20;;;16.00;;
75340;SDS011;64931;47.562;18.920;2023-02-12T00:08:28;29.00;;;19.60;;
75340;SDS011;64931;47.562;18.920;2023-02-12T00:10:54;25.70;;;19.00;;
75340;SDS011;64931;47.562;18.920;2023-02-12T00:13:19;28.10;;;20.10;;
75340;SDS011;64931;47.562;18.920;2023-02-12T00:15:45;25.70;;;18.30;;
75340;SDS011;64931;47.562;18.920;2023-02-12T00:18:10;23.90;;;15.60;;
75340;SDS011;64931;47.562;18.920;2023-02-12T00:20:36;25.90;;;17.80;;
75340;SDS011;64931;47.562;18.920;2023-02-12T00:23:02;29.20;;;17.60;;
75340;SDS011;64931;47.562;18.920;2023-02-12T00:25:29;26.60;;;16.30;;
75340;SDS011;64931;47.562;18.920;2023-02-12T00:27:54;29.00;;;21.20;;
75340;SDS011;64931;47.562;18.920;2023-02-12T00:30:22;26.60;;;16.10;;
75340;SDS011;64931;47.562;18.920;2023-02-12T00:32:47;26.80;;;14.60;;
75340;SDS011;64931;47.562;18.920;2023-02-12T00:35:13;29.70;;;19.30;;
75340;SDS011;64931;47.562;18.920;2023-02-12T00:37:38;27.80;;;21.90;;
75340;SDS011;64931;47.562;18.920;2023-02-12T00:40:04;27.30;;;19.30;;
75340;SDS011;64931;47.562;18.920;2023-02-12T00:42:30;26.90;;;19.60;;
75340;SDS011;64931;47.562;18.920;2023-02-12T00:44:56;26.00;;;19.20;;
75340;SDS011;64931;47.562;18.920;2023-02-12T00:47:21;28.10;;;20.80;;
75340;SDS011;64931;47.562;18.920;2023-02-12T00:49:46;25.80;;;18.30;;
75340;SDS011;64931;47.562;18.920;2023-02-12T00:52:12;27.70;;;18.50;;
75340;SDS011;64931;47.562;18.920;2023-02-12T00:54:37;27.40;;;17.40;;
75340;SDS011;64931;47.562;18.920;2023-02-12T00:57:03;29.10;;;17.80;;
75340;SDS011;64931;47.562;18.920;2023-02-12T00:59:28;27.80;;;19.00;;
75340;SDS011;64931;47.562;18.920;2023-02-12T01:01:54;25.10;;;15.10;;
75340;SDS011;64931;47.562;18.920;2023-02-12T01:04:20;28.70;;;16.80;;
75340;SDS011;64931;47.562;18.920;2023-02-12T01:06:46;30.30;;;22.50;;
75340;SDS011;64931;47.562;18.920;2023-02-12T01:09:12;26.30;;;19.40;;
75340;SDS011;64931;47.562;18.920;2023-02-12T01:11:37;26.90;;;15.90;;
75340;SDS011;64931;47.562;18.920;2023-02-12T01:14:03;30.30;;;20.40;;
75340;SDS011;64931;47.562;18.920;2023-02-12T01:16:29;29.00;;;17.40;;
75340;SDS011;64931;47.562;18.920;2023-02-12T01:18:57;28.40;;;20.70;;
75340;SDS011;64931;47.562;18.920;2023-02-12T01:21:24;29.30;;;18.60;;
75340;SDS011;64931;47.562;18.920;2023-02-12T01:23:51;30.40;;;18.00;;
75340;SDS011;64931;47.562;18.920;2023-02-12T01:26:17;29.30;;;25.70;;
75340;SDS011;64931;47.562;18.920;2023-02-12T01:28:47;30.60;;;19.40;;
75340;SDS011;64931;47.562;18.920;2023-02-12T01:31:14;32.00;;;21.50;;
75340;SDS011;64931;47.562;18.920;2023-02-12T01:33:42;32.80;;;20.70;;
75340;SDS011;64931;47.562;18.920;2023-02-12T01:36:08;28.10;;;16.90;;
75340;SDS011;64931;47.562;18.920;2023-02-12T01:38:34;29.80;;;18.10;;
75340;SDS011;64931;47.562;18.920;2023-02-12T01:41:03;29.80;;;20.60;;
75340;SDS011;64931;47.562;18.920;2023-02-12T01:43:32;33.20;;;20.10;;
75340;SDS011;64931;47.562;18.920;2023-02-12T01:46:01;31.90;;;19.40;;
75340;SDS011;64931;47.562;18.920;2023-02-12T01:48:28;32.30;;;23.50;;
75340;SDS011;64931;47.562;18.920;2023-02-12T01:50:56;31.10;;;18.10;;
75340;SDS011;64931;47.562;18.920;2023-02-12T01:53:23;31.30;;;21.50;;
75340;SDS011;64931;47.562;18.920;2023-02-12T01:55:51;30.60;;;24.00;;
75340;SDS011;64931;47.562;18.920;2023-02-12T01:58:19;29.20;;;24.00;;
75340;SDS011;64931;47.562;18.920;2023-02-12T02:00:45;30.10;;;16.20;;
75340;SDS011;64931;47.562;18.920;2023-02-12T02:03:10;30.90;;;21.40;;
75340;SDS011;64931;47.562;18.920;2023-02-12T02:05:45;31.80;;;19.70;;
75340;SDS011;64931;47.562;18.920;2023-02-12T02:08:14;19.10;;;10.20;;
75340;SDS011;64931;47.562;18.920;2023-02-12T02:10:39;34.30;;;22.40;;
75340;SDS011;64931;47.562;18.920;2023-02-12T02:13:05;30.90;;;21.20;;
75340;SDS011;64931;47.562;18.920;2023-02-12T02:15:50;32.90;;;22.20;;
75340;SDS011;64931;47.562;18.920;2023-02-12T02:18:26;31.60;;;19.40;;
75340;SDS011;64931;47.562;18.920;2023-02-12T02:32:39;31.20;;;18.80;;
75340;SDS011;64931;47.562;18.920;2023-02-12T02:40:31;32.60;;;17.80;;
75340;SDS011;64931;47.562;18.920;2023-02-12T02:43:20;33.80;;;20.60;;
75340;SDS011;64931;47.562;18.920;2023-02-12T02:45:53;31.90;;;18.30;;
75340;SDS011;64931;47.562;18.920;2023-02-12T02:48:23;32.30;;;19.40;;
75340;SDS011;64931;47.562;18.920;2023-02-12T02:50:53;33.20;;;20.50;;
75340;SDS011;64931;47.562;18.920;2023-02-12T02:53:24;36.70;;;26.00;;
75340;SDS011;64931;47.562;18.920;2023-02-12T02:55:53;39.50;;;23.80;;
75340;SDS011;64931;47.562;18.920;2023-02-12T02:58:20;39.10;;;24.70;;
75340;SDS011;64931;47.562;18.920;2023-02-12T03:00:58;36.10;;;27.00;;
75340;SDS011;64931;47.562;18.920;2023-02-12T03:03:46;36.60;;;30.50;;
75340;SDS011;64931;47.562;18.920;2023-02-12T03:06:18;37.90;;;23.20;;
75340;SDS011;64931;47.562;18.920;2023-02-12T03:08:53;34.00;;;20.90;;
75340;SDS011;64931;47.562;18.920;2023-02-12T03:11:26;36.00;;;23.50;;
75340;SDS011;64931;47.562;18.920;2023-02-12T03:16:27;36.20;;;22.70;;
75340;SDS011;64931;47.562;18.920;2023-02-12T03:19:10;36.30;;;24.90;;
75340;SDS011;64931;47.562;18.920;2023-02-12T03:27:15;35.00;;;21.10;;
75340;SDS011;64931;47.562;18.920;2023-02-12T03:29:43;36.60;;;24.60;;
75340;SDS011;64931;47.562;18.920;2023-02-12T03:32:13;40.00;;;25.90;;
75340;SDS011;64931;47.562;18.920;2023-02-12T03:39:59;38.80;;;25.40;;
75340;SDS011;64931;47.562;18.920;2023-02-12T03:53:32;32.00;;;18.70;;
75340;SDS011;64931;47.562;18.920;2023-02-12T03:56:05;32.00;;;19.00;;
75340;SDS011;64931;47.562;18.920;2023-02-12T03:58:34;30.40;;;19.80;;
75340;SDS011;64931;47.562;18.920;2023-02-12T04:01:00;33.00;;;22.70;;
75340;SDS011;64931;47.562;18.920;2023-02-12T04:03:26;32.10;;;19.30;;
75340;SDS011;64931;47.562;18.920;2023-02-12T04:05:52;32.10;;;23.80;;
75340;SDS011;64931;47.562;18.920;2023-02-12T04:08:18;27.70;;;18.60;;
75340;SDS011;64931;47.562;18.920;2023-02-12T04:11:06;32.70;;;22.70;;
75340;SDS011;64931;47.562;18.920;2023-02-12T04:13:42;32.30;;;18.70;;
75340;SDS011;64931;47.562;18.920;2023-02-12T04:24:18;29.60;;;25.40;;
75340;SDS011;64931;47.562;18.920;2023-02-12T04:29:46;29.40;;;21.90;;
75340;SDS011;64931;47.562;18.920;2023-02-12T04:32:38;31.80;;;20.20;;
75340;SDS011;64931;47.562;18.920;2023-02-12T04:37:56;32.50;;;20.40;;
75340;SDS011;64931;47.562;18.920;2023-02-12T04:40:23;29.50;;;20.20;;
75340;SDS011;64931;47.562;18.920;2023-02-12T04:42:50;33.20;;;23.70;;
75340;SDS011;64931;47.562;18.920;2023-02-12T04:45:24;29.90;;;20.30;;
75340;SDS011;64931;47.562;18.920;2023-02-12T04:47:52;28.70;;;22.20;;
75340;SDS011;64931;47.562;18.920;2023-02-12T04:50:18;30.50;;;18.50;;
75340;SDS011;64931;47.562;18.920;2023-02-12T04:52:43;29.90;;;17.80;;
75340;SDS011;64931;47.562;18.920;2023-02-12T04:55:09;31.80;;;22.50;;
75340;SDS011;64931;47.562;18.920;2023-02-12T04:57:35;33.20;;;22.50;;
75340;SDS011;64931;47.562;18.920;2023-02-12T05:00:00;33.00;;;22.00;;
75340;SDS011;64931;47.562;18.920;2023-02-12T05:02:29;30.40;;;21.60;;
75340;SDS011;64931;47.562;18.920;2023-02-12T05:04:54;34.60;;;18.80;;
75340;SDS011;64931;47.562;18.920;2023-02-12T05:07:19;35.80;;;25.70;;
75340;SDS011;64931;47.562;18.920;2023-02-12T05:09:45;36.20;;;27.00;;
75340;SDS011;64931;47.562;18.920;2023-02-12T05:12:10;35.80;;;20.50;;
75340;SDS011;64931;47.562;18.920;2023-02-12T05:14:39;34.90;;;22.40;;
75340;SDS011;64931;47.562;18.920;2023-02-12T05:17:04;34.90;;;22.50;;
75340;SDS011;64931;47.562;18.920;2023-02-12T05:19:30;34.80;;;25.00;;
75340;SDS011;64931;47.562;18.920;2023-02-12T05:21:56;35.90;;;25.20;;
75340;SDS011;64931;47.562;18.920;2023-02-12T05:24:21;35.40;;;19.10;;
75340;SDS011;64931;47.562;18.920;2023-02-12T05:26:47;32.40;;;19.20;;
75340;SDS011;64931;47.562;18.920;2023-02-12T05:29:13;34.20;;;22.00;;
75340;SDS011;64931;47.562;18.920;2023-02-12T05:31:39;35.40;;;26.00;;
75340;SDS011;64931;47.562;18.920;2023-02-12T05:34:05;31.50;;;21.60;;
75340;SDS011;64931;47.562;18.920;2023-02-12T05:36:31;27.40;;;16.50;;
75340;SDS011;64931;47.562;18.920;2023-02-12T05:38:57;34.50;;;23.80;;
75340;SDS011;64931;47.562;18.920;2023-02-12T05:41:24;31.50;;;21.40;;
75340;SDS011;64931;47.562;18.920;2023-02-12T05:43:50;30.10;;;18.30;;
75340;SDS011;64931;47.562;18.920;2023-02-12T05:46:16;30.60;;;17.80;;
75340;SDS011;64931;47.562;18.920;2023-02-12T05:48:43;30.70;;;17.80;;
75340;SDS011;64931;47.562;18.920;2023-02-12T05:51:10;33.20;;;22.40;;
75340;SDS011;64931;47.562;18.920;2023-02-12T05:53:38;31.20;;;21.90;;
75340;SDS011;64931;47.562;18.920;2023-02-12T05:56:06;33.40;;;21.70;;
75340;SDS011;64931;47.562;18.920;2023-02-12T05:58:37;30.30;;;19.00;;
75340;SDS011;64931;47.562;18.920;2023-02-12T06:01:07;31.20;;;21.00;;
75340;SDS011;64931;47.562;18.920;2023-02-12T06:03:44;28.00;;;15.90;;
75340;SDS011;64931;47.562;18.920;2023-02-12T06:06:12;29.00;;;18.70;;
75340;SDS011;64931;47.562;18.920;2023-02-12T06:08:38;28.30;;;17.70;;
75340;SDS011;64931;47.562;18.920;2023-02-12T06:11:05;27.20;;;17.30;;
75340;SDS011;64931;47.562;18.920;2023-02-12T06:13:32;28.60;;;16.60;;
75340;SDS011;64931;47.562;18.920;2023-02-12T06:15:57;28.10;;;17.00;;
75340;SDS011;64931;47.562;18.920;2023-02-12T06:18:23;26.70;;;22.00;;
75340;SDS011;64931;47.562;18.920;2023-02-12T06:20:50;25.50;;;15.80;;
75340;SDS011;64931;47.562;18.920;2023-02-12T06:23:21;27.30;;;17.90;;
75340;SDS011;64931;47.562;18.920;2023-02-12T06:25:48;27.60;;;18.20;;
75340;SDS011;64931;47.562;18.920;2023-02-12T06:28:14;27.30;;;16.90;;
75340;SDS011;64931;47.562;18.920;2023-02-12T06:30:40;31.00;;;20.30;;
75340;SDS011;64931;47.562;18.920;2023-02-12T06:33:05;26.50;;;15.40;;
75340;SDS011;64931;47.562;18.920;2023-02-12T06:35:33;32.40;;;18.50;;
75340;SDS011;64931;47.562;18.920;2023-02-12T06:37:59;31.20;;;16.60;;
75340;SDS011;64931;47.562;18.920;2023-02-12T06:40:26;24.50;;;14.60;;
75340;SDS011;64931;47.562;18.920;2023-02-12T06:42:54;27.60;;;20.00;;
75340;SDS011;64931;47.562;18.920;2023-02-12T06:45:19;25.20;;;19.30;;
75340;SDS011;64931;47.562;18.920;2023-02-12T06:47:44;24.00;;;16.00;;
75340;SDS011;64931;47.562;18.920;2023-02-12T06:50:10;25.60;;;17.30;;
75340;SDS011;64931;47.562;18.920;2023-02-12T06:52:35;25.40;;;19.10;;
75340;SDS011;64931;47.562;18.920;2023-02-12T06:55:01;24.50;;;14.30;;
75340;SDS011;64931;47.562;18.920;2023-02-12T06:57:27;22.70;;;14.90;;
75340;SDS011;64931;47.562;18.920;2023-02-12T06:59:53;23.20;;;17.60;;
75340;SDS011;64931;47.562;18.920;2023-02-12T07:02:19;22.90;;;15.30;;
75340;SDS011;64931;47.562;18.920;2023-02-12T07:04:44;24.00;;;13.50;;
75340;SDS011;64931;47.562;18.920;2023-02-12T07:07:10;23.20;;;14.00;;
75340;SDS011;64931;47.562;18.920;2023-02-12T07:09:35;21.20;;;13.60;;
75340;SDS011;64931;47.562;18.920;2023-02-12T07:12:01;22.50;;;11.50;;
75340;SDS011;64931;47.562;18.920;2023-02-12T07:14:26;20.10;;;11.70;;
75340;SDS011;64931;47.562;18.920;2023-02-12T07:16:55;16.20;;;10.30;;
75340;SDS011;64931;47.562;18.920;2023-02-12T07:19:21;18.10;;;11.20;;
75340;SDS011;64931;47.562;18.920;2023-02-12T07:21:49;18.70;;;10.40;;
75340;SDS011;64931;47.562;18.920;2023-02-12T07:24:15;18.90;;;12.00;;
75340;SDS011;64931;47.562;18.920;2023-02-12T07:26:42;16.80;;;11.10;;
75340;SDS011;64931;47.562;18.920;2023-02-12T07:29:08;14.20;;;10.50;;
75340;SDS011;64931;47.562;18.920;2023-02-12T07:31:34;16.30;;;10.30;;
75340;SDS011;64931;47.562;18.920;2023-02-12T07:33:59;15.40;;;10.90;;
75340;SDS011;64931;47.562;18.920;2023-02-12T07:36:26;15.80;;;9.30;;
75340;SDS011;64931;47.562;18.920;2023-02-12T07:38:53;13.70;;;9.10;;
75340;SDS011;64931;47.562;18.920;2023-02-12T07:41:21;14.50;;;10.90;;
75340;SDS011;64931;47.562;18.920;2023-02-12T07:43:56;14.70;;;9.80;;
75340;SDS011;64931;47.562;18.920;2023-02-12T07:46:24;14.80;;;8.80;;
75340;SDS011;64931;47.562;18.920;2023-02-12T07:48:55;14.50;;;10.60;;
75340;SDS011;64931;47.562;18.920;2023-02-12T07:51:24;13.10;;;10.70;;
75340;SDS011;64931;47.562;18.920;2023-02-12T07:53:54;14.90;;;10.10;;
75340;SDS011;64931;47.562;18.920;2023-02-12T07:56:24;14.00;;;9.10;;
75340;SDS011;64931;47.562;18.920;2023-02-12T07:58:58;13.80;;;8.20;;
75340;SDS011;64931;47.562;18.920;2023-02-12T08:01:32;14.60;;;8.70;;
75340;SDS011;64931;47.562;18.920;2023-02-12T08:04:07;13.00;;;8.90;;
75340;SDS011;64931;47.562;18.920;2023-02-12T08:06:39;12.20;;;8.30;;
75340;SDS011;64931;47.562;18.920;2023-02-12T08:09:07;12.30;;;8.50;;
75340;SDS011;64931;47.562;18.920;2023-02-12T08:11:37;11.90;;;8.20;;
75340;SDS011;64931;47.562;18.920;2023-02-12T08:14:03;12.50;;;7.90;;
75340;SDS011;64931;47.562;18.920;2023-02-12T08:16:29;11.70;;;7.80;;
75340;SDS011;64931;47.562;18.920;2023-02-12T08:18:55;12.00;;;8.30;;
75340;SDS011;64931;47.562;18.920;2023-02-12T08:23:50;13.30;;;9.50;;
75340;SDS011;64931;47.562;18.920;2023-02-12T08:26:31;12.60;;;8.50;;
75340;SDS011;64931;47.562;18.920;2023-02-12T08:29:00;13.60;;;9.40;;
75340;SDS011;64931;47.562;18.920;2023-02-12T08:31:32;12.80;;;10.20;;
75340;SDS011;64931;47.562;18.920;2023-02-12T08:34:18;13.50;;;9.30;;
75340;SDS011;64931;47.562;18.920;2023-02-12T08:36:49;13.30;;;9.30;;
75340;SDS011;64931;47.562;18.920;2023-02-12T08:39:18;12.90;;;9.60;;
75340;SDS011;64931;47.562;18.920;2023-02-12T08:41:44;12.80;;;8.60;;
75340;SDS011;64931;47.562;18.920;2023-02-12T08:44:10;12.80;;;9.20;;
75340;SDS011;64931;47.562;18.920;2023-02-12T08:46:37;11.90;;;8.40;;
75340;SDS011;64931;47.562;18.920;2023-02-12T08:49:09;12.10;;;9.80;;
75340;SDS011;64931;47.562;18.920;2023-02-12T08:51:37;12.20;;;9.30;;
75340;SDS011;64931;47.562;18.920;2023-02-12T08:54:05;12.00;;;8.70;;
75340;SDS011;64931;47.562;18.920;2023-02-12T08:56:32;11.90;;;8.20;;
75340;SDS011;64931;47.562;18.920;2023-02-12T08:58:59;12.20;;;8.80;;
75340;SDS011;64931;47.562;18.920;2023-02-12T09:01:26;10.60;;;8.10;;
75340;SDS011;64931;47.562;18.920;2023-02-12T09:03:53;11.20;;;7.80;;
75340;SDS011;64931;47.562;18.920;2023-02-12T09:06:20;12.50;;;7.90;;
75340;SDS011;64931;47.562;18.920;2023-02-12T09:08:46;11.20;;;8.00;;
75340;SDS011;64931;47.562;18.920;2023-02-12T09:11:17;11.60;;;7.60;;
75340;SDS011;64931;47.562;18.920;2023-02-12T09:13:44;11.00;;;7.60;;
75340;SDS011;64931;47.562;18.920;2023-02-12T09:16:11;11.20;;;7.50;;
75340;SDS011;64931;47.562;18.920;2023-02-12T09:18:37;9.90;;;7.60;;
75340;SDS011;64931;47.562;18.920;2023-02-12T09:21:07;10.30;;;7.70;;
75340;SDS011;64931;47.562;18.920;2023-02-12T09:23:34;9.60;;;6.80;;
75340;SDS011;64931;47.562;18.920;2023-02-12T09:26:02;10.20;;;7.90;;
75340;SDS011;64931;47.562;18.920;2023-02-12T09:28:29;10.40;;;6.90;;
75340;SDS011;64931;47.562;18.920;2023-02-12T09:30:55;10.10;;;6.20;;
75340;SDS011;64931;47.562;18.920;2023-02-12T09:33:20;9.10;;;6.90;;
75340;SDS011;64931;47.562;18.920;2023-02-12T09:35:46;10.70;;;6.80;;
75340;SDS011;64931;47.562;18.920;2023-02-12T09:38:12;11.50;;;7.10;;
75340;SDS011;64931;47.562;18.920;2023-02-12T09:46:30;9.30;;;5.90;;
75340;SDS011;64931;47.562;18.920;2023-02-12T09:51:32;11.00;;;7.50;;
75340;SDS011;64931;47.562;18.920;2023-02-12T09:54:04;11.70;;;8.90;;
75340;SDS011;64931;47.562;18.920;2023-02-12T09:56:43;10.90;;;8.30;;
75340;SDS011;64931;47.562;18.920;2023-02-12T09:59:48;11.90;;;8.50;;
75340;SDS011;64931;47.562;18.920;2023-02-12T10:02:11;11.20;;;8.20;;
75340;SDS011;64931;47.562;18.920;2023-02-12T10:04:41;11.60;;;8.20;;
75340;SDS011;64931;47.562;18.920;2023-02-12T10:10:23;13.20;;;8.70;;
75340;SDS011;64931;47.562;18.920;2023-02-12T10:12:59;11.00;;;6.80;;
75340;SDS011;64931;47.562;18.920;2023-02-12T10:26:30;8.40;;;6.10;;
75340;SDS011;64931;47.562;18.920;2023-02-12T10:31:39;9.40;;;6.80;;
75340;SDS011;64931;47.562;18.920;2023-02-12T10:34:26;9.40;;;6.20;;
75340;SDS011;64931;47.562;18.920;2023-02-12T10:36:57;9.30;;;6.40;;
75340;SDS011;64931;47.562;18.920;2023-02-12T10:39:31;8.00;;;6.70;;
75340;SDS011;64931;47.562;18.920;2023-02-12T10:42:01;8.70;;;6.40;;
75340;SDS011;64931;47.562;18.920;2023-02-12T10:44:32;10.40;;;6.60;;
75340;SDS011;64931;47.562;18.920;2023-02-12T10:46:58;8.70;;;6.30;;
75340;SDS011;64931;47.562;18.920;2023-02-12T10:49:23;10.40;;;6.70;;
75340;SDS011;64931;47.562;18.920;2023-02-12T10:52:01;8.40;;;5.70;;
75340;SDS011;64931;47.562;18.920;2023-02-12T10:54:44;7.70;;;5.30;;
75340;SDS011;64931;47.562;18.920;2023-02-12T10:57:22;8.30;;;5.50;;
75340;SDS011;64931;47.562;18.920;2023-02-12T11:05:36;8.00;;;5.40;;
75340;SDS011;64931;47.562;18.920;2023-02-12T11:16:14;9.70;;;5.40;;
75340;SDS011;64931;47.562;18.920;2023-02-12T11:34:16;6.90;;;3.80;;
75340;SDS011;64931;47.562;18.920;2023-02-12T11:36:46;6.00;;;4.00;;
75340;SDS011;64931;47.562;18.920;2023-02-12T11:39:33;7.10;;;4.40;;
75340;SDS011;64931;47.562;18.920;2023-02-12T11:44:51;6.00;;;4.00;;
75340;SDS011;64931;47.562;18.920;2023-02-12T11:47:39;7.70;;;4.00;;
75340;SDS011;64931;47.562;18.920;2023-02-12T11:56:07;8.90;;;4.30;;
75340;SDS011;64931;47.562;18.920;2023-02-12T11:58:48;6.80;;;4.00;;
75340;SDS011;64931;47.562;18.920;2023-02-12T12:01:31;7.00;;;3.80;;
75340;SDS011;64931;47.562;18.920;2023-02-12T12:06:57;6.50;;;3.70;;
75340;SDS011;64931;47.562;18.920;2023-02-12T12:14:54;6.20;;;3.50;;
75340;SDS011;64931;47.562;18.920;2023-02-12T12:17:47;7.20;;;4.20;;
75340;SDS011;64931;47.562;18.920;2023-02-12T12:20:35;6.00;;;3.60;;
75340;SDS011;64931;47.562;18.920;2023-02-12T12:23:10;6.30;;;4.00;;
75340;SDS011;64931;47.562;18.920;2023-02-12T12:25:48;6.90;;;4.10;;
75340;SDS011;64931;47.562;18.920;2023-02-12T12:41:45;5.60;;;3.30;;
75340;SDS011;64931;47.562;18.920;2023-02-12T12:50:26;7.20;;;3.60;;
75340;SDS011;64931;47.562;18.920;2023-02-12T13:04:28;6.90;;;4.10;;
75340;SDS011;64931;47.562;18.920;2023-02-12T13:07:00;6.00;;;3.60;;
75340;SDS011;64931;47.562;18.920;2023-02-12T13:10:07;7.00;;;3.70;;
75340;SDS011;64931;47.562;18.920;2023-02-12T13:12:55;5.50;;;3.30;;
75340;SDS011;64931;47.562;18.920;2023-02-12T13:15:31;5.30;;;3.10;;
75340;SDS011;64931;47.562;18.920;2023-02-12T13:18:12;6.60;;;3.40;;
75340;SDS011;64931;47.562;18.920;2023-02-12T13:23:30;6.10;;;3.70;;
75340;SDS011;64931;47.562;18.920;2023-02-12T13:28:38;6.50;;;3.20;;
75340;SDS011;64931;47.562;18.920;2023-02-12T13:31:07;6.70;;;3.40;;
75340;SDS011;64931;47.562;18.920;2023-02-12T13:36:34;8.40;;;4.10;;
75340;SDS011;64931;47.562;18.920;2023-02-12T13:41:53;6.60;;;3.30;;
75340;SDS011;64931;47.562;18.920;2023-02-12T13:44:30;7.60;;;3.30;;
75340;SDS011;64931;47.562;18.920;2023-02-12T13:47:37;6.50;;;3.40;;
75340;SDS011;64931;47.562;18.920;2023-02-12T13:50:30;6.80;;;3.90;;
75340;SDS011;64931;47.562;18.920;2023-02-12T13:53:22;5.50;;;3.20;;
75340;SDS011;64931;47.562;18.920;2023-02-12T14:01:11;6.50;;;3.50;;
75340;SDS011;64931;47.562;18.920;2023-02-12T14:03:46;6.90;;;3.40;;
75340;SDS011;64931;47.562;18.920;2023-02-12T14:06:17;7.20;;;3.90;;
75340;SDS011;64931;47.562;18.920;2023-02-12T14:11:37;8.10;;;3.20;;
75340;SDS011;64931;47.562;18.920;2023-02-12T14:23:26;5.90;;;3.30;;
75340;SDS011;64931;47.562;18.920;2023-02-12T14:26:27;5.60;;;3.10;;
75340;SDS011;64931;47.562;18.920;2023-02-12T14:29:32;14.50;;;8.40;;
75340;SDS011;64931;47.562;18.920;2023-02-12T14:51:38;21.90;;;15.40;;
75340;SDS011;64931;47.562;18.920;2023-02-12T15:05:13;6.30;;;2.80;;
75340;SDS011;64931;47.562;18.920;2023-02-12T15:10:38;5.30;;;2.70;;
75340;SDS011;64931;47.562;18.920;2023-02-12T15:21:47;5.50;;;3.00;;
75340;SDS011;64931;47.562;18.920;2023-02-12T15:24:24;6.40;;;2.90;;
75340;SDS011;64931;47.562;18.920;2023-02-12T15:27:04;5.60;;;2.90;;
75340;SDS011;64931;47.562;18.920;2023-02-12T15:29:35;6.00;;;3.30;;
75340;SDS011;64931;47.562;18.920;2023-02-12T15:32:20;6.40;;;3.30;;
75340;SDS011;64931;47.562;18.920;2023-02-12T15:35:04;7.60;;;3.40;;
75340;SDS011;64931;47.562;18.920;2023-02-12T15:37:33;8.90;;;3.70;;
75340;SDS011;64931;47.562;18.920;2023-02-12T15:40:01;8.80;;;4.50;;
75340;SDS011;64931;47.562;18.920;2023-02-12T15:42:37;8.20;;;4.20;;
75340;SDS011;64931;47.562;18.920;2023-02-12T15:45:20;8.00;;;3.30;;
75340;SDS011;64931;47.562;18.920;2023-02-12T15:50:43;7.70;;;3.60;;
75340;SDS011;64931;47.562;18.920;2023-02-12T15:53:31;6.20;;;2.90;;
75340;SDS011;64931;47.562;18.920;2023-02-12T15:55:58;7.70;;;3.30;;
75340;SDS011;64931;47.562;18.920;2023-02-12T15:58:26;8.70;;;3.80;;
75340;SDS011;64931;47.562;18.920;2023-02-12T16:01:00;7.20;;;3.80;;
75340;SDS011;64931;47.562;18.920;2023-02-12T16:03:35;8.40;;;4.00;;
75340;SDS011;64931;47.562;18.920;2023-02-12T16:06:11;6.80;;;3.70;;
75340;SDS011;64931;47.562;18.920;2023-02-12T16:08:40;6.60;;;3.30;;
75340;SDS011;64931;47.562;18.920;2023-02-12T16:11:08;7.40;;;4.10;;
75340;SDS011;64931;47.562;18.920;2023-02-12T16:14:21;7.00;;;3.30;;
75340;SDS011;64931;47.562;18.920;2023-02-12T16:19:32;7.50;;;3.60;;
75340;SDS011;64931;47.562;18.920;2023-02-12T16:22:13;6.80;;;3.30;;
75340;SDS011;64931;47.562;18.920;2023-02-12T16:24:50;8.10;;;4.20;;
75340;SDS011;64931;47.562;18.920;2023-02-12T16:27:20;8.70;;;3.90;;
75340;SDS011;64931;47.562;18.920;2023-02-12T16:29:49;8.60;;;4.30;;
75340;SDS011;64931;47.562;18.920;2023-02-12T16:32:36;11.10;;;4.80;;
75340;SDS011;64931;47.562;18.920;2023-02-12T16:40:08;7.90;;;4.20;;
75340;SDS011;64931;47.562;18.920;2023-02-12T16:46:03;11.70;;;5.00;;
75340;SDS011;64931;47.562;18.920;2023-02-12T16:48:29;8.50;;;4.80;;
75340;SDS011;64931;47.562;18.920;2023-02-12T16:50:56;11.40;;;5.10;;
75340;SDS011;64931;47.562;18.920;2023-02-12T16:56:02;7.90;;;4.30;;
75340;SDS011;64931;47.562;18.920;2023-02-12T16:58:28;9.50;;;5.00;;
75340;SDS011;64931;47.562;18.920;2023-02-12T17:00:55;10.20;;;5.30;;
75340;SDS011;64931;47.562;18.920;2023-02-12T17:03:21;7.40;;;4.20;;
75340;SDS011;64931;47.562;18.920;2023-02-12T17:05:48;12.30;;;5.60;;
75340;SDS011;64931;47.562;18.920;2023-02-12T17:08:17;8.40;;;4.80;;
75340;SDS011;64931;47.562;18.920;2023-02-12T17:10:45;10.60;;;5.20;;
75340;SDS011;64931;47.562;18.920;2023-02-12T17:13:12;11.30;;;4.90;;
75340;SDS011;64931;47.562;18.920;2023-02-12T17:15:42;8.80;;;4.30;;
75340;SDS011;64931;47.562;18.920;2023-02-12T17:18:10;9.90;;;4.60;;
75340;SDS011;64931;47.562;18.920;2023-02-12T17:20:36;9.80;;;5.10;;
75340;SDS011;64931;47.562;18.920;2023-02-12T17:23:02;13.00;;;5.80;;
75340;SDS011;64931;47.562;18.920;2023-02-12T17:25:28;9.80;;;4.70;;
75340;SDS011;64931;47.562;18.920;2023-02-12T17:27:54;11.40;;;5.70;;
75340;SDS011;64931;47.562;18.920;2023-02-12T17:30:23;12.10;;;5.40;;
75340;SDS011;64931;47.562;18.920;2023-02-12T17:32:50;10.50;;;5.00;;
75340;SDS011;64931;47.562;18.920;2023-02-12T17:35:16;10.00;;;4.80;;
75340;SDS011;64931;47.562;18.920;2023-02-12T17:37:41;10.10;;;4.50;;
75340;SDS011;64931;47.562;18.920;2023-02-12T17:40:07;11.00;;;4.80;;
75340;SDS011;64931;47.562;18.920;2023-02-12T17:42:36;9.90;;;4.90;;
75340;SDS011;64931;47.562;18.920;2023-02-12T17:45:02;10.90;;;5.20;;
75340;SDS011;64931;47.562;18.920;2023-02-12T17:47:29;11.60;;;4.80;;
75340;SDS011;64931;47.562;18.920;2023-02-12T17:49:55;9.90;;;5.20;;
75340;SDS011;64931;47.562;18.920;2023-02-12T17:52:26;13.40;;;6.80;;
75340;SDS011;64931;47.562;18.920;2023-02-12T17:54:51;11.30;;;6.10;;
75340;SDS011;64931;47.562;18.920;2023-02-12T17:57:17;11.70;;;6.00;;
75340;SDS011;64931;47.562;18.920;2023-02-12T17:59:42;13.20;;;6.80;;
75340;SDS011;64931;47.562;18.920;2023-02-12T18:02:09;13.40;;;5.80;;
75340;SDS011;64931;47.562;18.920;2023-02-12T18:04:35;12.50;;;6.10;;
75340;SDS011;64931;47.562;18.920;2023-02-12T18:07:01;13.20;;;5.90;;
75340;SDS011;64931;47.562;18.920;2023-02-12T18:09:28;13.50;;;6.80;;
75340;SDS011;64931;47.562;18.920;2023-02-12T18:11:53;13.60;;;6.90;;
75340;SDS011;64931;47.562;18.920;2023-02-12T18:14:18;12.00;;;6.40;;
75340;SDS011;64931;47.562;18.920;2023-02-12T18:16:44;15.50;;;7.20;;
75340;SDS011;64931;47.562;18.920;2023-02-12T18:19:09;31.50;;;20.60;;
75340;SDS011;64931;47.562;18.920;2023-02-12T18:21:35;54.50;;;37.00;;
75340;SDS011;64931;47.562;18.920;2023-02-12T18:24:01;79.10;;;60.40;;
75340;SDS011;64931;47.562;18.920;2023-02-12T18:26:27;26.40;;;19.00;;
75340;SDS011;64931;47.562;18.920;2023-02-12T18:28:52;16.60;;;9.70;;
75340;SDS011;64931;47.562;18.920;2023-02-12T18:31:18;15.50;;;7.70;;
75340;SDS011;64931;47.562;18.920;2023-02-12T18:33:44;23.30;;;16.10;;
75340;SDS011;64931;47.562;18.920;2023-02-12T18:36:11;14.20;;;7.40;;
75340;SDS011;64931;47.562;18.920;2023-02-12T18:38:38;14.90;;;9.40;;
75340;SDS011;64931;47.562;18.920;2023-02-12T18:41:06;16.80;;;8.30;;
75340;SDS011;64931;47.562;18.920;2023-02-12T18:43:32;18.10;;;9.50;;